메인 페이지
METAR-TAF:

METAR-TAF

공항 :

팔라우 국제공항

코로르, 바벨다오브 섬, 팔라우

위도: 07-22N, 경도: 134-32E, 고도: 54m

현재 날씨관측

예보는 39분 전, 16:50시(UTC)에 발표되었습니다.
무풍
온도 25°C
습도 94%
기압 1009 hPa
시정: 20.9km
고도 1500ft 상공 구름 많음, 타워링 적운.
고도 30000ft 상공 흐림

METAR: PTRO 171650Z 00000KT 13SM BKN015TCU OVC300 25/24 A2980 RMK TCU ALQDS

시각: 02:29 (17:29 UTC)

예보

예보는 6 시간 9분 전, 11:20시(UTC)에 발표되었습니다.
예보 대상 시간: 17일 12시부터 18일 12시까지 (UTC)
여러 방향의 바람 4kt
시정: 10km
고도 1700ft 상공 구름 보통
고도 12000ft 상공 구름 많음
시계 내 소나기
17일 2100시부터 (UTC)
9kt
시정: 10km
고도 1700ft 상공 구름 보통
고도 12000ft 상공 구름 많음
시계 내 소나기

TAF: PTRO 171120Z 1712/1812 VRB04KT P6SM VCSH SCT017 BKN120 FM172100 28009KT P6SM VCSH SCT017 BKN120

4,000개 이상의 공항 관측 자료 및 예보 (METAR 및 TAF 보고).

지도상에서 검색 가능한 기상관측소가 노란 점과 빨간 점으로 표시되어 있습니다.

기상관측소 명을 보려면 표시 위로 마우스를 이동하세요.

날씨 관측과 예보를 보려면 클릭하세요.

지도 변경 : 확대하려면 엑스 표시가 있는 녹색 버튼, 축소하려면 빼기 표시가 있는 녹색 버튼, 다음 페이지의 지도를 보려면 녹색 화살표를 클릭하세요.


METAR-TAF: